EPLL/LCJ METAR and TAF weather

Enter ICAO airport designator
Station Type Date Time Source
EPLL METAR 2021/01/16 03:00 UTC NOAA

EPLL 160300Z 28005KT 7000 -SN BKN005 M06/M07 Q1018 R25/59//92


Station Type Date Time Source
EPLL Decoded METAR 2021/01/16 03:00 UTC NOAA

Station name not available
Jan 15, 2021 - 10:00 PM EST / 2021.01.16 0300 UTC
Wind: from the W (280 degrees) at 6 MPH (5 KT):0
Visibility: 4 mile(s):0
Sky conditions: mostly cloudy
Weather: light snow
Temperature: 21 F (-6 C)
Windchill: 14 F (-10 C):1
Dew Point: 19 F (-7 C)
Relative Humidity: 92%
Pressure (altimeter): 30.06 in. Hg (1018 hPa)
ob: EPLL 160300Z 28005KT 7000 -SN BKN005 M06/M07 Q1018 R25/59//92
cycle: 3

Station Type Date Time Source
EPLL TAF 2021/01/15 18:00 UTC NOAA

TAF EPLL 151730Z 1518/1618 35010KT 9999 SCT030
TEMPO 1523/1613 3000 -SN BR BKN008
BECMG 1600/1603 28012KT PROB40
TEMPO 1609/1613 27015G25KT 2000 SN BLSN BKN004
TEMPO 1613/1618 27015G30KT 1000 SN BLSN BKN004

Example: see airport list